createdAt,value
2022-08-12T00:02:05.100Z,99980.19
2022-08-12T00:05:11.784Z,99983.28
2022-08-12T00:08:17.792Z,99975.81
2022-08-12T00:11:37.114Z,99978.06
2022-08-12T00:14:44.731Z,99975.88
2022-08-12T00:17:51.077Z,99970.22
2022-08-12T00:20:57.485Z,99967.31
2022-08-12T00:24:03.487Z,99973.19
2022-08-12T00:27:09.528Z,99970.16
2022-08-12T00:30:16.842Z,99967.41
2022-08-12T00:33:23.414Z,99969.69
2022-08-12T00:36:36.520Z,99971.88
2022-08-12T00:39:44.245Z,99973.59
2022-08-12T00:42:31.700Z,99977.66
2022-08-12T00:45:21.704Z,99965.06
2022-08-12T00:48:10.257Z,99972.56
2022-08-12T00:50:58.788Z,99969.53
2022-08-12T00:53:47.338Z,99983.66
2022-08-12T00:56:36.682Z,99969.94
2022-08-12T00:59:25.157Z,99980.03
2022-08-12T01:02:24.445Z,99981.47
2022-08-12T01:05:33.185Z,99982.84
2022-08-12T01:08:44.792Z,99984.94
2022-08-12T01:11:33.326Z,99985.38
2022-08-12T01:14:24.043Z,99981.19
2022-08-12T01:17:15.060Z,99985.94
2022-08-12T01:20:07.763Z,99980.13
2022-08-12T01:23:16.378Z,99977.78
2022-08-12T01:26:07.394Z,99979.84
2022-08-12T01:28:58.822Z,99979.16
2022-08-12T01:31:47.898Z,99975.69
2022-08-12T01:34:38.427Z,99979.03
2022-08-12T01:37:27.600Z,99980.81
2022-08-12T01:40:33.207Z,99976.69
2022-08-12T01:43:27.351Z,99977.63
2022-08-12T01:46:25.920Z,99979.31
2022-08-12T01:49:36.268Z,99977.63
2022-08-12T01:52:31.890Z,99973.38
2022-08-12T01:55:22.587Z,99973.19
2022-08-12T01:58:24.119Z,99962.69
2022-08-12T02:01:13.551Z,99963.38
2022-08-12T02:04:25.327Z,99959.09
2022-08-12T02:07:38.825Z,99954.53
2022-08-12T02:11:06.232Z,99952.72
2022-08-12T02:14:21.160Z,99953.84
2022-08-12T02:17:55.543Z,99952.31
2022-08-12T02:20:51.516Z,99951.63
2022-08-12T02:23:41.367Z,99947.31
2022-08-12T02:26:30.207Z,99945.53
2022-08-12T02:29:20.205Z,99945.53
2022-08-12T02:32:09.245Z,99936.81
2022-08-12T02:34:59.142Z,99939.44
2022-08-12T02:37:49.196Z,99937.78
2022-08-12T02:40:39.776Z,99938.47
2022-08-12T02:43:38.942Z,99947.31
2022-08-12T02:46:34.303Z,99943.56
2022-08-12T02:49:25.567Z,99941.81
2022-08-12T02:52:16.226Z,99945.25
2022-08-12T02:55:28.269Z,99947.06
2022-08-12T02:58:32.996Z,99943.56
2022-08-12T03:01:28.486Z,99939.44
2022-08-12T03:04:26.806Z,99945.69
2022-08-12T03:07:21.406Z,99941.38
2022-08-12T03:10:15.802Z,99950.13
2022-08-12T03:13:07.117Z,99949.13
2022-08-12T03:15:56.135Z,99943.03
2022-08-12T03:18:46.176Z,99940.41
2022-08-12T03:21:55.507Z,99938.59
2022-08-12T03:24:46.349Z,99944.69
2022-08-12T03:27:34.860Z,99947.31
2022-08-12T03:30:24.607Z,99947.50
2022-08-12T03:33:14.538Z,99952.06
2022-08-12T03:36:03.138Z,99947.91
2022-08-12T03:39:12.442Z,99962.84
2022-08-12T03:42:08.966Z,99954.41
2022-08-12T03:45:26.970Z,99960.91
2022-08-12T03:48:33.413Z,99963.81
2022-08-12T03:51:39.783Z,99962.41
2022-08-12T03:54:45.795Z,99975.81
2022-08-12T03:57:53.163Z,99971.81
2022-08-12T04:00:41.776Z,99970.44
2022-08-12T04:03:48.212Z,99974.31
2022-08-12T04:06:36.773Z,99980.94
2022-08-12T04:09:25.332Z,99983.97
2022-08-12T04:12:32.421Z,99985.22
2022-08-12T04:15:25.818Z,99985.78
2022-08-12T04:18:15.932Z,99992.28
2022-08-12T04:21:05.148Z,99984.81
2022-08-12T04:23:54.126Z,99996.25
2022-08-12T04:26:42.624Z,100000.81
2022-08-12T04:30:16.571Z,100003.59
2022-08-12T04:32:44.446Z,100005.78
2022-08-12T04:35:33.417Z,100007.00
2022-08-12T04:38:21.929Z,100007.28
2022-08-12T04:41:10.836Z,99998.84
2022-08-12T04:44:01.883Z,99996.63
2022-08-12T04:46:51.141Z,100000.19
2022-08-12T04:49:41.250Z,100001.28
2022-08-12T04:52:34.768Z,100008.06
2022-08-12T04:55:23.817Z,100010.78
2022-08-12T04:58:12.660Z,100004.84
2022-08-12T05:01:03.522Z,100009.28
2022-08-12T05:03:52.478Z,100004.84
2022-08-12T05:06:42.616Z,100011.75
2022-08-12T05:09:58.688Z,100015.34
2022-08-12T05:12:45.440Z,100016.31
2022-08-12T05:15:35.317Z,100014.38
2022-08-12T05:18:24.820Z,100021.31
2022-08-12T05:21:13.312Z,100021.19
2022-08-12T05:24:03.433Z,100022.69
2022-08-12T05:26:52.392Z,100034.31
2022-08-12T05:30:05.341Z,100022.41
2022-08-12T05:32:49.818Z,100018.88
2022-08-12T05:35:44.204Z,100030.91
2022-08-12T05:44:23.336Z,100034.09
2022-08-12T05:47:12.425Z,100031.56
2022-08-12T05:50:00.997Z,100035.34
2022-08-12T05:52:49.582Z,100029.22
2022-08-12T05:55:41.508Z,100032.94
2022-08-12T05:58:30.966Z,100037.66
2022-08-12T06:02:10.462Z,100039.69
2022-08-12T06:04:30.059Z,100049.22
2022-08-12T06:07:59.301Z,100051.13
2022-08-12T06:10:31.494Z,100051.91
2022-08-12T06:13:28.112Z,100055.38
2022-08-12T06:16:22.097Z,100054.88
2022-08-12T06:19:10.575Z,100049.13
2022-08-12T06:21:59.394Z,100026.97
2022-08-12T06:24:48.443Z,100046.66
2022-08-12T06:28:06.318Z,100043.66
2022-08-12T06:31:25.697Z,100045.66
2022-08-12T06:35:26.456Z,100047.97
2022-08-12T06:37:12.733Z,100042.44
2022-08-12T06:40:03.921Z,100050.88
2022-08-12T06:42:52.850Z,100054.03
2022-08-12T06:45:46.804Z,100047.25
2022-08-12T06:48:35.921Z,100044.44
2022-08-12T06:51:25.896Z,100033.59
2022-08-12T06:54:14.401Z,100043.25
2022-08-12T06:58:05.700Z,100039.66
2022-08-12T07:00:32.598Z,100039.44
2022-08-12T07:03:27.554Z,100036.06
2022-08-12T07:06:16.264Z,100038.13
2022-08-12T07:09:07.038Z,100031.59
2022-08-12T07:11:55.539Z,100033.09
2022-08-12T07:14:48.799Z,100037.19
2022-08-12T07:17:41.186Z,100037.91
2022-08-12T07:20:51.361Z,100043.31
2022-08-12T07:23:39.803Z,100032.31
2022-08-12T07:26:29.584Z,100036.16
2022-08-12T07:29:18.673Z,100042.03
2022-08-12T07:32:07.441Z,100039.88
2022-08-12T07:34:55.996Z,100038.66
2022-08-12T07:37:44.440Z,100044.63
2022-08-12T07:40:32.877Z,100042.38
2022-08-12T07:43:22.692Z,100046.59
2022-08-12T07:46:13.744Z,100043.63
2022-08-12T07:49:04.991Z,100038.09
2022-08-12T07:51:53.413Z,100033.97
2022-08-12T07:54:41.865Z,100055.47
2022-08-12T07:57:32.334Z,100054.56
2022-08-12T08:00:22.686Z,100046.84
2022-08-12T08:03:13.327Z,100040.88
2022-08-12T08:06:01.787Z,100032.41
2022-08-12T08:08:50.262Z,100034.78
2022-08-12T08:11:56.304Z,100033.16
2022-08-12T08:14:46.401Z,100031.91
2022-08-12T08:17:39.700Z,100028.72
2022-08-12T08:20:33.774Z,100026.97
2022-08-12T08:23:22.228Z,100031.47
2022-08-12T08:26:17.980Z,100032.28
2022-08-12T08:29:08.814Z,100015.56
2022-08-12T08:32:00.185Z,100022.09
2022-08-12T08:34:53.820Z,100020.50
2022-08-12T08:37:46.900Z,100028.44
2022-08-12T08:40:58.732Z,100026.38
2022-08-12T08:43:47.197Z,100017.97
2022-08-12T08:46:38.010Z,100005.31
2022-08-12T08:49:27.175Z,100018.78
2022-08-12T08:52:38.408Z,100016.38
2022-08-12T08:55:47.960Z,100007.06
2022-08-12T08:58:38.329Z,100003.94
2022-08-12T09:01:36.489Z,99999.53
2022-08-12T09:05:13.155Z,100003.06
2022-08-12T09:07:59.459Z,100000.22
2022-08-12T09:11:13.557Z,99998.78
2022-08-12T09:14:29.265Z,99995.72
2022-08-12T09:17:21.469Z,99995.97
2022-08-12T09:20:11.000Z,99992.03
2022-08-12T09:23:07.991Z,99995.84
2022-08-12T09:26:18.950Z,100001.81
2022-08-12T09:29:11.805Z,99995.38
2022-08-12T09:32:06.866Z,99986.00
2022-08-12T09:34:57.678Z,99978.75
2022-08-12T09:37:55.342Z,99973.91
2022-08-12T09:40:57.072Z,99990.34
2022-08-12T09:44:06.289Z,99978.50
2022-08-12T09:47:10.633Z,99970.75
2022-08-12T09:49:59.487Z,99969.16
2022-08-12T09:52:54.390Z,99960.56
2022-08-12T09:56:06.434Z,99963.47
2022-08-12T09:59:01.340Z,99963.13
2022-08-12T10:02:53.069Z,99949.34
2022-08-12T10:04:59.562Z,99959.03
2022-08-12T10:07:48.201Z,99954.41
2022-08-12T10:10:56.689Z,99948.63
2022-08-12T10:13:45.190Z,99948.81
2022-08-12T10:16:43.539Z,99944.03
2022-08-12T10:19:36.177Z,99951.75
2022-08-12T10:22:39.028Z,99936.22
2022-08-12T10:26:35.442Z,99934.03
2022-08-12T10:30:01.185Z,99939.97
2022-08-12T10:32:45.278Z,99917.81
2022-08-12T10:35:38.397Z,99928.94
2022-08-12T10:38:34.303Z,99919.13
2022-08-12T10:41:56.799Z,99923.69
2022-08-12T10:44:46.915Z,99907.88
2022-08-12T10:48:19.810Z,99918.97
2022-08-12T10:50:56.710Z,99912.19
2022-08-12T10:53:52.600Z,99912.41
2022-08-12T10:56:41.713Z,99908.91
2022-08-12T10:59:39.146Z,99900.31
2022-08-12T11:04:26.254Z,99908.50
2022-08-12T11:07:05.820Z,99889.16
2022-08-12T11:09:10.623Z,99894.88
2022-08-12T11:12:36.949Z,99893.22
2022-08-12T11:15:19.257Z,99889.50
2022-08-12T11:18:18.114Z,99887.69
2022-08-12T11:21:07.426Z,99886.28
2022-08-12T11:24:04.743Z,99883.97
2022-08-12T11:26:53.311Z,99887.06
2022-08-12T11:30:02.502Z,99885.81
2022-08-12T11:32:50.324Z,99876.31
2022-08-12T11:35:41.529Z,99869.53
2022-08-12T11:38:31.569Z,99877.50
2022-08-12T11:41:31.042Z,99868.84
2022-08-12T11:44:36.656Z,99857.97
2022-08-12T11:47:29.215Z,99861.06
2022-08-12T11:50:20.217Z,99858.16
2022-08-12T11:53:59.611Z,99854.47
2022-08-12T11:56:18.522Z,99849.69
2022-08-12T12:02:19.285Z,99861.22
2022-08-12T12:05:10.018Z,99851.69
2022-08-12T12:08:37.638Z,99854.81
2022-08-12T12:11:09.257Z,99853.72
2022-08-12T12:14:08.616Z,99841.03
2022-08-12T12:16:59.716Z,99841.47
2022-08-12T12:19:48.603Z,99843.72
2022-08-12T12:22:37.095Z,99828.41
2022-08-12T12:25:59.493Z,99829.00
2022-08-12T12:28:38.361Z,99836.72
2022-08-12T12:32:08.979Z,99828.53
2022-08-12T12:34:36.505Z,99809.66
2022-08-12T12:37:58.990Z,99828.13
2022-08-12T12:40:39.720Z,99824.06
2022-08-12T12:43:42.767Z,99812.69
2022-08-12T12:46:34.618Z,99814.44
2022-08-12T12:49:26.162Z,99806.34
2022-08-12T12:52:18.893Z,99818.19
2022-08-12T12:55:10.940Z,99800.22
2022-08-12T12:58:04.704Z,99806.03
2022-08-12T13:00:59.731Z,99799.09
2022-08-12T13:03:56.320Z,99785.16
2022-08-12T13:06:52.058Z,99797.66
2022-08-12T13:09:40.523Z,99780.00
2022-08-12T13:12:35.187Z,99783.53
2022-08-12T13:15:45.237Z,99785.03
2022-08-12T13:18:37.308Z,99787.56
2022-08-12T13:21:36.624Z,99790.91
2022-08-12T13:24:25.974Z,99781.09
2022-08-12T13:27:20.667Z,99792.03
2022-08-12T13:30:12.005Z,99779.47
2022-08-12T13:33:00.667Z,99786.66
2022-08-12T13:36:05.689Z,99791.72
2022-08-12T13:38:57.449Z,99783.13
2022-08-12T13:41:45.944Z,99783.94
2022-08-12T13:44:37.980Z,99786.44
2022-08-12T13:47:27.567Z,99771.41
2022-08-12T13:50:17.129Z,99773.38
2022-08-12T13:53:24.642Z,99771.41
2022-08-12T13:56:19.317Z,99786.09
2022-08-12T13:59:09.210Z,99775.97
2022-08-12T14:01:57.787Z,99768.28
2022-08-12T14:04:56.459Z,99772.47
2022-08-12T14:07:59.074Z,99776.81
2022-08-12T14:10:53.353Z,99768.03
2022-08-12T14:14:03.854Z,99760.81
2022-08-12T14:16:53.874Z,99750.91
2022-08-12T14:20:04.385Z,99742.25
2022-08-12T14:22:56.475Z,99739.28
2022-08-12T14:25:47.238Z,99743.38
2022-08-12T14:28:45.454Z,99750.53
2022-08-12T14:31:53.246Z,99760.75
2022-08-12T14:34:42.835Z,99754.06
2022-08-12T14:37:57.829Z,99750.38
2022-08-12T14:40:41.665Z,99736.84
2022-08-12T14:43:58.920Z,99744.63
2022-08-12T14:46:41.975Z,99742.84
2022-08-12T14:50:37.326Z,99741.00
2022-08-12T14:55:36.110Z,99756.00
2022-08-12T14:59:23.878Z,99753.25
2022-08-12T15:02:20.485Z,99740.56
2022-08-12T15:05:10.826Z,99745.34
2022-08-12T15:08:24.948Z,99744.75
2022-08-12T15:11:17.170Z,99735.31
2022-08-12T15:14:15.479Z,99738.78
2022-08-12T15:17:08.238Z,99737.06
2022-08-12T15:20:31.790Z,99736.63
2022-08-12T15:23:18.099Z,99729.34
2022-08-12T15:26:20.640Z,99746.41
2022-08-12T15:29:16.940Z,99730.59
2022-08-12T15:32:15.773Z,99730.25
2022-08-12T15:35:11.947Z,99737.94
2022-08-12T15:38:10.290Z,99736.19
2022-08-12T15:41:01.275Z,99744.06
2022-08-12T15:44:16.000Z,99733.44
2022-08-12T15:46:58.683Z,99732.41
2022-08-12T15:49:59.780Z,99726.44
2022-08-12T15:52:49.578Z,99735.53
2022-08-12T15:55:45.751Z,99735.53
2022-08-12T15:58:38.210Z,99737.75
2022-08-12T16:01:35.054Z,99735.53
2022-08-12T16:04:23.759Z,99736.53
2022-08-12T16:07:12.210Z,99725.63
2022-08-12T16:10:06.874Z,99725.84
2022-08-12T16:12:58.830Z,99727.09
2022-08-12T16:15:51.065Z,99726.47
2022-08-12T16:18:52.717Z,99731.81
2022-08-12T16:21:52.274Z,99725.25
2022-08-12T16:24:47.112Z,99728.94
2022-08-12T16:27:41.785Z,99732.81
2022-08-12T16:30:34.174Z,99721.50
2022-08-12T16:33:24.744Z,99726.47
2022-08-12T16:36:18.793Z,99718.22
2022-08-12T16:39:07.607Z,99724.19
2022-08-12T16:41:57.440Z,99714.94
2022-08-12T16:44:46.142Z,99715.38
2022-08-12T16:47:57.544Z,99713.31
2022-08-12T16:50:49.965Z,99707.97
2022-08-12T16:53:44.927Z,99714.13
2022-08-12T16:56:35.502Z,99709.19
2022-08-12T16:59:30.856Z,99700.38
2022-08-12T17:02:36.819Z,99691.97
2022-08-12T17:05:31.377Z,99695.22
2022-08-12T17:08:29.097Z,99691.13
2022-08-12T17:11:18.326Z,99695.41
2022-08-12T17:14:08.516Z,99702.78
2022-08-12T17:16:58.358Z,99703.41
2022-08-12T17:20:29.263Z,99706.00
2022-08-12T17:22:57.452Z,99702.31
2022-08-12T17:25:48.903Z,99694.66
2022-08-12T17:28:37.410Z,99697.28
2022-08-12T17:32:00.171Z,99697.00
2022-08-12T17:34:52.464Z,99696.13
2022-08-12T17:37:41.178Z,99695.28
2022-08-12T17:40:34.527Z,99700.75
2022-08-12T17:43:51.778Z,99707.06
2022-08-12T17:46:34.331Z,99707.03
2022-08-12T17:50:02.154Z,99708.34
2022-08-12T17:52:33.338Z,99719.53
2022-08-12T17:55:43.919Z,99716.59
2022-08-12T17:58:37.567Z,99719.84
2022-08-12T18:01:29.129Z,99722.72
2022-08-12T18:04:22.193Z,99724.13
2022-08-12T18:07:12.831Z,99724.69
2022-08-12T18:10:02.937Z,99720.59
2022-08-12T18:12:53.603Z,99719.69
2022-08-12T18:16:06.381Z,99730.00
2022-08-12T18:18:58.645Z,99734.94
2022-08-12T18:22:01.779Z,99730.25
2022-08-12T18:25:00.820Z,99738.16
2022-08-12T18:28:15.145Z,99741.22
2022-08-12T18:31:03.533Z,99742.59
2022-08-12T18:33:52.726Z,99749.44
2022-08-12T18:36:41.613Z,99746.13
2022-08-12T18:39:53.092Z,99750.16
2022-08-12T18:42:54.203Z,99752.66
2022-08-12T18:45:47.080Z,99754.31
2022-08-12T18:48:47.167Z,99753.94
2022-08-12T18:51:48.984Z,99763.81
2022-08-12T18:54:49.391Z,99767.34
2022-08-12T18:57:45.841Z,99765.44
2022-08-12T19:00:52.504Z,99763.13
2022-08-12T19:03:41.115Z,99768.41
2022-08-12T19:06:38.137Z,99772.84
2022-08-12T19:09:38.808Z,99773.63
2022-08-12T19:13:01.578Z,99772.59
2022-08-12T19:15:50.878Z,99783.38
2022-08-12T19:18:40.937Z,99783.63
2022-08-12T19:21:37.129Z,99773.16
2022-08-12T19:24:43.564Z,99779.16
2022-08-12T19:27:36.212Z,99777.19
2022-08-12T19:30:57.153Z,99785.44
2022-08-12T19:34:06.456Z,99782.03
2022-08-12T19:36:55.981Z,99789.91
2022-08-12T19:40:08.723Z,99788.31
2022-08-12T19:42:57.644Z,99792.31
2022-08-12T19:45:51.349Z,99796.81
2022-08-12T19:48:41.013Z,99788.00
2022-08-12T19:51:33.341Z,99801.09
2022-08-12T19:54:27.131Z,99793.88
2022-08-12T19:57:18.791Z,99802.91
2022-08-12T20:00:17.299Z,99801.25
2022-08-12T20:03:06.214Z,99803.19
2022-08-12T20:06:07.275Z,99802.53
2022-08-12T20:08:57.424Z,99808.06
2022-08-12T20:12:12.352Z,99810.16
2022-08-12T20:14:58.176Z,99803.66
2022-08-12T20:17:50.977Z,99803.97
2022-08-12T20:20:40.073Z,99800.66
2022-08-12T20:23:50.739Z,99804.53
2022-08-12T20:26:41.646Z,99805.66
2022-08-12T20:29:35.622Z,99806.78
2022-08-12T20:32:29.637Z,99801.81
2022-08-12T20:36:06.724Z,99805.72
2022-08-12T20:38:38.169Z,99800.34
2022-08-12T20:41:26.753Z,99804.53
2022-08-12T20:44:19.539Z,99808.00
2022-08-12T20:47:18.525Z,99812.13
2022-08-12T20:50:10.723Z,99811.06
2022-08-12T20:52:59.494Z,99815.78
2022-08-12T20:55:56.863Z,99813.84
2022-08-12T20:58:46.138Z,99812.75
2022-08-12T21:01:46.802Z,99823.81
2022-08-12T21:04:56.354Z,99816.66
2022-08-12T21:07:51.673Z,99831.28
2022-08-12T21:10:42.112Z,99831.00
2022-08-12T21:13:39.249Z,99832.13
2022-08-12T21:16:31.438Z,99827.16
2022-08-12T21:19:24.580Z,99827.28
2022-08-12T21:22:34.724Z,99814.31
2022-08-12T21:25:25.454Z,99827.16
2022-08-12T21:28:31.093Z,99820.50
2022-08-12T21:32:40.017Z,99830.75
2022-08-12T21:34:30.916Z,99828.81
2022-08-12T21:37:26.778Z,99830.63
2022-08-12T21:40:17.710Z,99834.63
2022-08-12T21:43:07.596Z,99838.50
2022-08-12T21:46:01.664Z,99834.72
2022-08-12T21:48:56.737Z,99837.38
2022-08-12T21:51:50.259Z,99836.22
2022-08-12T21:54:42.614Z,99838.16
2022-08-12T21:57:36.334Z,99836.78
2022-08-12T22:00:39.440Z,99830.47
2022-08-12T22:04:03.290Z,99836.13
2022-08-12T22:06:54.377Z,99838.06
2022-08-12T22:09:43.795Z,99833.22
2022-08-12T22:12:37.567Z,99833.06
2022-08-12T22:15:26.444Z,99836.47
2022-08-12T22:18:17.098Z,99831.78
2022-08-12T22:21:08.986Z,99839.41
2022-08-12T22:24:05.677Z,99837.34
2022-08-12T22:26:54.411Z,99842.28
2022-08-12T22:30:02.196Z,99837.84
2022-08-12T22:32:55.126Z,99842.59
2022-08-12T22:35:55.954Z,99848.13
2022-08-12T22:38:48.045Z,99840.41
2022-08-12T22:41:57.866Z,99841.22
2022-08-12T22:45:05.505Z,99839.28
2022-08-12T22:48:05.138Z,99838.16
2022-08-12T22:50:56.442Z,99838.72
2022-08-12T22:53:49.296Z,99825.13
2022-08-12T22:56:38.090Z,99827.34
2022-08-12T22:59:27.120Z,99832.59
2022-08-12T23:02:37.142Z,99823.44
2022-08-12T23:05:56.845Z,99823.97
2022-08-12T23:08:37.030Z,99815.13
2022-08-12T23:11:33.887Z,99821.19
2022-08-12T23:14:29.907Z,99820.06
2022-08-12T23:17:35.273Z,99823.53
2022-08-12T23:20:28.307Z,99819.53
2022-08-12T23:23:17.994Z,99815.38
2022-08-12T23:26:08.403Z,99818.19
2022-08-12T23:29:29.966Z,99814.88
2022-08-12T23:32:35.633Z,99811.56
2022-08-12T23:35:45.854Z,99817.75
2022-08-12T23:38:35.474Z,99828.72
2022-08-12T23:41:25.179Z,99823.47
2022-08-12T23:44:19.729Z,99821.00
2022-08-12T23:47:10.232Z,99826.53
2022-08-12T23:50:03.138Z,99821.13
2022-08-12T23:52:55.388Z,99820.44
2022-08-12T23:55:45.502Z,99826.81
2022-08-12T23:58:34.452Z,99824.31
